createdAt,value
2019-06-01T00:01:52.272Z,14.25
2019-06-01T00:04:19.078Z,13.95
2019-06-01T00:06:46.878Z,13.92
2019-06-01T00:09:14.237Z,14.19
2019-06-01T00:11:41.256Z,14.13
2019-06-01T00:14:10.433Z,14.42
2019-06-01T00:16:37.186Z,14.36
2019-06-01T00:19:03.945Z,14.04
2019-06-01T00:21:30.574Z,13.94
2019-06-01T00:23:57.378Z,13.84
2019-06-01T00:26:24.134Z,13.78
2019-06-01T00:28:52.906Z,13.89
2019-06-01T00:31:19.415Z,13.85
2019-06-01T00:33:47.326Z,13.87
2019-06-01T00:36:14.458Z,13.87
2019-06-01T00:38:41.623Z,14.14
2019-06-01T00:41:09.016Z,14.19
2019-06-01T00:43:35.703Z,13.95
2019-06-01T00:46:02.586Z,14.25
2019-06-01T00:48:29.441Z,13.96
2019-06-01T00:50:56.095Z,13.83
2019-06-01T00:53:23.073Z,13.60
2019-06-01T00:55:49.773Z,13.66
2019-06-01T00:58:16.527Z,13.74
2019-06-01T01:00:45.567Z,13.96
2019-06-01T01:03:11.730Z,13.88
2019-06-01T01:05:38.401Z,13.72
2019-06-01T01:08:05.289Z,13.72
2019-06-01T01:10:32.064Z,13.66
2019-06-01T01:13:00.630Z,13.89
2019-06-01T01:15:27.436Z,13.75
2019-06-01T01:17:54.308Z,13.79
2019-06-01T01:20:21.283Z,13.63
2019-06-01T01:22:48.604Z,13.67
2019-06-01T01:25:15.692Z,13.69
2019-06-01T01:27:42.317Z,13.78
2019-06-01T01:30:09.893Z,13.96
2019-06-01T01:32:36.538Z,13.96
2019-06-01T01:35:06.758Z,13.91
2019-06-01T01:37:36.096Z,14.03
2019-06-01T01:40:05.859Z,14.11
2019-06-01T01:42:32.566Z,14.04
2019-06-01T01:44:59.244Z,14.06
2019-06-01T01:47:25.909Z,14.09
2019-06-01T01:49:52.502Z,13.98
2019-06-01T01:52:19.243Z,13.94
2019-06-01T01:54:45.888Z,13.89
2019-06-01T01:57:12.467Z,13.61
2019-06-01T01:59:39.170Z,13.72
2019-06-01T02:02:05.776Z,13.73
2019-06-01T02:04:35.072Z,13.53
2019-06-01T02:07:02.402Z,13.61
2019-06-01T02:09:29.234Z,13.85
2019-06-01T02:11:55.818Z,13.80
2019-06-01T02:14:22.560Z,13.47
2019-06-01T02:16:49.247Z,13.18
2019-06-01T02:19:15.898Z,13.18
2019-06-01T02:21:42.641Z,13.59
2019-06-01T02:24:09.278Z,13.65
2019-06-01T02:26:35.926Z,13.71
2019-06-01T02:29:04.382Z,13.66
2019-06-01T02:31:41.583Z,13.69
2019-06-01T02:34:06.267Z,13.72
2019-06-01T02:36:33.203Z,13.73
2019-06-01T02:39:01.110Z,13.70
2019-06-01T02:41:30.317Z,13.63
2019-06-01T02:43:57.429Z,13.71
2019-06-01T02:46:25.576Z,13.67
2019-06-01T02:48:52.234Z,13.64
2019-06-01T02:51:18.841Z,13.68
2019-06-01T02:53:45.595Z,13.62
2019-06-01T02:56:12.279Z,13.50
2019-06-01T02:58:38.953Z,13.60
2019-06-01T03:01:11.375Z,13.68
2019-06-01T03:03:40.299Z,13.70
2019-06-01T03:06:09.374Z,13.78
2019-06-01T03:08:36.770Z,13.78
2019-06-01T03:11:05.981Z,13.81
2019-06-01T03:13:38.201Z,13.93
2019-06-01T03:16:10.724Z,13.98
2019-06-01T03:18:41.137Z,14.12
2019-06-01T03:21:13.289Z,14.09
2019-06-01T03:23:44.539Z,14.07
2019-06-01T03:26:16.203Z,14.02
2019-06-01T03:28:48.585Z,13.81
2019-06-01T03:31:15.220Z,13.88
2019-06-01T03:33:42.009Z,14.06
2019-06-01T03:36:09.127Z,14.10
2019-06-01T03:38:36.151Z,14.22
2019-06-01T03:41:04.016Z,14.41
2019-06-01T03:43:31.132Z,14.41
2019-06-01T03:45:57.992Z,14.60
2019-06-01T03:48:24.836Z,14.71
2019-06-01T03:50:51.911Z,14.88
2019-06-01T03:53:18.687Z,14.97
2019-06-01T03:55:45.369Z,15.10
2019-06-01T03:58:12.033Z,15.13
2019-06-01T04:00:38.596Z,15.06
2019-06-01T04:03:05.240Z,15.29
2019-06-01T04:05:32.261Z,15.40
2019-06-01T04:07:58.926Z,15.50
2019-06-01T04:10:25.605Z,15.52
2019-06-01T04:12:52.224Z,15.54
2019-06-01T04:15:19.175Z,15.66
2019-06-01T04:17:46.842Z,15.56
2019-06-01T04:20:13.838Z,15.47
2019-06-01T04:22:40.599Z,15.43
2019-06-01T04:25:10.309Z,15.63
2019-06-01T04:27:37.040Z,15.90
2019-06-01T04:30:06.875Z,16.04
2019-06-01T04:32:48.850Z,16.27
2019-06-01T04:35:07.214Z,16.34
2019-06-01T04:37:35.541Z,16.61
2019-06-01T04:40:05.323Z,16.73
2019-06-01T04:42:32.278Z,16.89
2019-06-01T04:44:58.963Z,16.80
2019-06-01T04:47:25.634Z,17.06
2019-06-01T04:49:52.254Z,17.28
2019-06-01T04:52:19.377Z,17.31
2019-06-01T04:54:45.972Z,17.36
2019-06-01T04:57:13.026Z,17.15
2019-06-01T04:59:40.283Z,17.44
2019-06-01T05:02:07.331Z,17.39
2019-06-01T05:04:34.170Z,17.53
2019-06-01T05:07:00.801Z,17.53
2019-06-01T05:09:27.464Z,17.68
2019-06-01T05:11:54.205Z,17.49
2019-06-01T05:14:20.864Z,17.61
2019-06-01T05:16:47.503Z,17.58
2019-06-01T05:19:14.362Z,17.56
2019-06-01T05:21:41.018Z,18.03
2019-06-01T05:24:08.830Z,18.14
2019-06-01T05:26:35.955Z,18.27
2019-06-01T05:29:03.445Z,18.21
2019-06-01T05:31:30.108Z,18.41
2019-06-01T05:33:56.840Z,18.70
2019-06-01T05:36:23.409Z,18.85
2019-06-01T05:38:50.079Z,18.76
2019-06-01T05:41:16.791Z,18.92
2019-06-01T05:43:43.569Z,19.04
2019-06-01T05:46:11.782Z,19.30
2019-06-01T05:48:39.046Z,19.30
2019-06-01T05:51:05.695Z,19.46
2019-06-01T05:53:32.390Z,19.56
2019-06-01T05:55:59.101Z,19.91
2019-06-01T05:58:29.127Z,19.70
2019-06-01T06:00:54.319Z,19.88
2019-06-01T06:03:31.991Z,20.13
2019-06-01T06:05:49.700Z,20.33
2019-06-01T06:08:16.344Z,20.46
2019-06-01T06:10:43.777Z,19.79
2019-06-01T06:13:11.132Z,19.88
2019-06-01T06:15:38.248Z,19.67
2019-06-01T06:18:04.927Z,20.49
2019-06-01T06:20:31.744Z,20.66
2019-06-01T06:22:58.544Z,21.01
2019-06-01T06:26:22.630Z,21.41
2019-06-01T06:28:49.820Z,21.15
2019-06-01T06:31:17.030Z,20.06
2019-06-01T06:33:55.881Z,20.20
2019-06-01T06:36:13.546Z,20.41
2019-06-01T06:38:41.765Z,20.53
2019-06-01T06:41:08.410Z,20.73
2019-06-01T06:43:37.933Z,21.08
2019-06-01T06:46:05.653Z,21.57
2019-06-01T06:48:32.468Z,21.06
2019-06-01T06:50:59.386Z,21.08
2019-06-01T06:53:34.563Z,21.10
2019-06-01T06:55:54.749Z,20.33
2019-06-01T06:58:22.472Z,20.53
2019-06-01T07:00:49.612Z,20.64
2019-06-01T07:03:16.874Z,21.16
2019-06-01T07:05:44.040Z,21.48
2019-06-01T07:08:10.759Z,21.24
2019-06-01T07:10:37.462Z,21.12
2019-06-01T07:13:04.179Z,21.29
2019-06-01T07:15:31.736Z,21.65
2019-06-01T07:17:58.563Z,21.62
2019-06-01T07:20:25.761Z,21.23
2019-06-01T07:22:52.750Z,21.09
2019-06-01T07:25:19.646Z,21.61
2019-06-01T07:28:44.680Z,21.82
2019-06-01T07:31:11.109Z,21.58
2019-06-01T07:33:37.719Z,21.56
2019-06-01T07:36:04.442Z,21.99
2019-06-01T07:38:31.173Z,22.17
2019-06-01T07:40:57.763Z,21.85
2019-06-01T07:43:24.781Z,22.03
2019-06-01T07:45:51.649Z,22.60
2019-06-01T07:48:18.539Z,22.87
2019-06-01T07:50:45.267Z,22.63
2019-06-01T07:53:12.606Z,22.31
2019-06-01T07:55:40.611Z,22.54
2019-06-01T07:58:11.905Z,22.77
2019-06-01T08:00:38.572Z,22.43
2019-06-01T08:03:05.164Z,22.86
2019-06-01T08:05:32.216Z,22.87
2019-06-01T08:07:59.661Z,22.49
2019-06-01T08:10:27.713Z,22.29
2019-06-01T08:12:54.987Z,22.35
2019-06-01T08:15:23.414Z,22.16
2019-06-01T08:17:50.483Z,22.20
2019-06-01T08:20:17.457Z,21.93
2019-06-01T08:22:44.361Z,21.77
2019-06-01T08:25:11.251Z,22.53
2019-06-01T08:27:37.899Z,22.85
2019-06-01T08:30:06.826Z,23.00
2019-06-01T08:32:33.785Z,23.43
2019-06-01T08:35:09.078Z,23.60
2019-06-01T08:37:33.776Z,23.07
2019-06-01T08:40:00.589Z,22.47
2019-06-01T08:42:27.442Z,22.29
2019-06-01T08:44:54.317Z,22.12
2019-06-01T08:47:20.978Z,22.47
2019-06-01T08:49:47.633Z,22.73
2019-06-01T08:52:14.432Z,22.95
2019-06-01T08:54:43.814Z,23.20
2019-06-01T08:57:10.772Z,22.91
2019-06-01T08:59:37.392Z,22.91
2019-06-01T09:02:04.273Z,23.04
2019-06-01T09:04:30.918Z,23.22
2019-06-01T09:06:57.466Z,23.32
2019-06-01T09:09:24.906Z,23.83
2019-06-01T09:11:52.023Z,24.01
2019-06-01T09:14:18.832Z,24.31
2019-06-01T09:16:46.110Z,24.22
2019-06-01T09:19:12.724Z,23.60
2019-06-01T09:21:39.435Z,23.06
2019-06-01T09:24:06.300Z,23.33
2019-06-01T09:27:29.763Z,23.88
2019-06-01T09:29:56.823Z,23.62
2019-06-01T09:32:23.463Z,23.13
2019-06-01T09:34:50.380Z,22.88
2019-06-01T09:37:17.142Z,23.21
2019-06-01T09:39:45.108Z,23.53
2019-06-01T09:42:11.818Z,23.90
2019-06-01T09:44:38.458Z,24.31
2019-06-01T09:47:05.154Z,24.15
2019-06-01T09:49:32.597Z,23.36
2019-06-01T09:52:00.830Z,23.72
2019-06-01T09:54:29.447Z,23.97
2019-06-01T09:56:56.241Z,24.33
2019-06-01T09:59:23.237Z,24.57
2019-06-01T10:01:51.429Z,24.80
2019-06-01T10:04:18.257Z,24.83
2019-06-01T10:06:44.937Z,24.53
2019-06-01T10:09:12.863Z,23.96
2019-06-01T10:11:39.525Z,24.43
2019-06-01T10:14:06.430Z,24.60
2019-06-01T10:16:34.416Z,24.84
2019-06-01T10:19:01.579Z,25.02
2019-06-01T10:21:28.204Z,25.07
2019-06-01T10:23:54.831Z,24.10
2019-06-01T10:26:21.439Z,24.52
2019-06-01T10:28:48.253Z,24.84
2019-06-01T10:31:14.975Z,24.73
2019-06-01T10:33:41.557Z,24.68
2019-06-01T10:36:19.970Z,24.73
2019-06-01T10:38:37.426Z,25.30
2019-06-01T10:41:04.342Z,25.15
2019-06-01T10:43:33.706Z,25.07
2019-06-01T10:46:00.561Z,25.37
2019-06-01T10:48:27.171Z,25.64
2019-06-01T10:50:53.871Z,25.54
2019-06-01T10:53:20.647Z,25.62
2019-06-01T10:55:48.705Z,25.73
2019-06-01T10:58:15.599Z,25.25
2019-06-01T11:00:50.121Z,25.26
2019-06-01T11:03:11.092Z,25.72
2019-06-01T11:05:38.772Z,25.94
2019-06-01T11:08:06.095Z,25.30
2019-06-01T11:10:36.874Z,25.87
2019-06-01T11:13:04.053Z,26.04
2019-06-01T11:15:30.839Z,25.82
2019-06-01T11:17:57.519Z,26.23
2019-06-01T11:20:24.294Z,26.60
2019-06-01T11:22:50.990Z,26.52
2019-06-01T11:25:18.066Z,26.57
2019-06-01T11:27:44.787Z,26.21
2019-06-01T11:30:13.140Z,26.24
2019-06-01T11:32:41.889Z,26.55
2019-06-01T11:35:10.488Z,26.59
2019-06-01T11:37:38.399Z,26.14
2019-06-01T11:40:07.176Z,26.16
2019-06-01T11:42:35.055Z,26.74
2019-06-01T11:45:05.617Z,26.81
2019-06-01T11:47:36.867Z,27.15
2019-06-01T11:50:05.158Z,27.30
2019-06-01T11:52:31.914Z,26.72
2019-06-01T11:55:54.854Z,26.76
2019-06-01T11:58:21.519Z,26.77
2019-06-01T12:00:48.364Z,26.96
2019-06-01T12:03:15.095Z,26.38
2019-06-01T12:05:44.114Z,26.61
2019-06-01T12:08:11.754Z,26.58
2019-06-01T12:10:38.955Z,26.68
2019-06-01T12:13:05.927Z,26.92
2019-06-01T12:15:32.751Z,26.72
2019-06-01T12:17:59.388Z,26.44
2019-06-01T12:20:26.287Z,26.58
2019-06-01T12:22:53.033Z,26.63
2019-06-01T12:25:19.792Z,26.40
2019-06-01T12:27:46.585Z,26.45
2019-06-01T12:30:14.309Z,26.32
2019-06-01T12:32:41.931Z,26.76
2019-06-01T12:35:09.505Z,26.57
2019-06-01T12:37:54.981Z,26.73
2019-06-01T12:40:07.737Z,25.72
2019-06-01T12:42:35.040Z,25.57
2019-06-01T12:45:05.549Z,25.19
2019-06-01T12:47:32.532Z,25.09
2019-06-01T12:49:59.404Z,25.49
2019-06-01T12:52:26.351Z,26.14
2019-06-01T12:54:53.224Z,26.35
2019-06-01T12:57:20.544Z,26.43
2019-06-01T12:59:48.376Z,26.59
2019-06-01T13:02:14.998Z,26.95
2019-06-01T13:04:42.813Z,26.91
2019-06-01T13:07:09.616Z,26.59
2019-06-01T13:09:37.892Z,25.77
2019-06-01T13:12:04.733Z,26.06
2019-06-01T13:14:31.898Z,26.43
2019-06-01T13:17:06.973Z,26.79
2019-06-01T13:19:27.434Z,26.96
2019-06-01T13:21:54.293Z,26.79
2019-06-01T13:24:21.057Z,27.17
2019-06-01T13:26:47.898Z,27.07
2019-06-01T13:29:14.831Z,27.20
2019-06-01T13:31:42.051Z,27.26
2019-06-01T13:34:09.142Z,27.28
2019-06-01T13:36:35.893Z,27.48
2019-06-01T13:39:07.874Z,27.65
2019-06-01T13:41:34.838Z,27.64
2019-06-01T13:44:01.898Z,27.88
2019-06-01T13:46:28.498Z,27.99
2019-06-01T13:48:55.082Z,28.02
2019-06-01T13:51:22.195Z,27.40
2019-06-01T13:53:48.997Z,27.56
2019-06-01T13:56:17.132Z,27.36
2019-06-01T13:58:44.281Z,27.73
2019-06-01T14:01:11.227Z,27.20
2019-06-01T14:03:37.799Z,27.76
2019-06-01T14:06:04.556Z,28.18
2019-06-01T14:08:31.390Z,28.30
2019-06-01T14:10:58.110Z,27.79
2019-06-01T14:13:24.809Z,28.22
2019-06-01T14:15:51.665Z,27.96
2019-06-01T14:18:18.625Z,27.88
2019-06-01T14:20:47.545Z,27.81
2019-06-01T14:23:14.417Z,27.88
2019-06-01T14:25:41.117Z,28.12
2019-06-01T14:28:07.939Z,28.20
2019-06-01T14:30:34.834Z,28.24
2019-06-01T14:33:01.738Z,27.18
2019-06-01T14:35:28.541Z,27.19
2019-06-01T14:37:55.381Z,27.88
2019-06-01T14:40:22.725Z,27.94
2019-06-01T14:42:52.002Z,28.13
2019-06-01T14:45:19.943Z,27.88
2019-06-01T14:47:47.154Z,28.05
2019-06-01T14:50:14.901Z,28.06
2019-06-01T14:52:41.463Z,28.16
2019-06-01T14:55:10.857Z,27.27
2019-06-01T14:57:39.495Z,27.74
2019-06-01T15:00:10.134Z,28.16
2019-06-01T15:02:36.860Z,27.70
2019-06-01T15:05:06.629Z,28.00
2019-06-01T15:07:33.296Z,28.53
2019-06-01T15:09:59.955Z,28.92
2019-06-01T15:12:26.598Z,28.68
2019-06-01T15:14:53.314Z,28.72
2019-06-01T15:17:20.027Z,28.89
2019-06-01T15:19:46.712Z,28.58
2019-06-01T15:22:13.313Z,28.51
2019-06-01T15:24:39.930Z,27.72
2019-06-01T15:27:06.644Z,27.82
2019-06-01T15:29:33.495Z,28.07
2019-06-01T15:32:00.296Z,28.04
2019-06-01T15:34:26.895Z,28.47
2019-06-01T15:36:53.746Z,28.69
2019-06-01T15:39:24.790Z,28.06
2019-06-01T15:41:49.120Z,27.97
2019-06-01T15:44:15.712Z,27.60
2019-06-01T15:46:42.447Z,27.99
2019-06-01T15:49:09.052Z,28.07
2019-06-01T15:51:35.618Z,28.08
2019-06-01T15:54:03.216Z,27.53
2019-06-01T15:56:30.266Z,27.99
2019-06-01T15:58:58.611Z,28.23
2019-06-01T16:01:25.852Z,28.19
2019-06-01T16:03:53.183Z,28.26
2019-06-01T16:06:20.206Z,27.93
2019-06-01T16:08:46.844Z,27.35
2019-06-01T16:11:13.707Z,27.85
2019-06-01T16:13:40.296Z,27.85
2019-06-01T16:16:07.049Z,27.51
2019-06-01T16:18:34.314Z,26.76
2019-06-01T16:21:04.336Z,27.28
2019-06-01T16:23:46.179Z,27.63
2019-06-01T16:26:12.156Z,27.44
2019-06-01T16:28:28.699Z,27.75
2019-06-01T16:30:56.365Z,26.86
2019-06-01T16:33:23.272Z,26.86
2019-06-01T16:35:49.901Z,27.27
2019-06-01T16:38:16.566Z,27.44
2019-06-01T16:40:43.483Z,27.14
2019-06-01T16:43:10.176Z,26.78
2019-06-01T16:45:38.866Z,26.68
2019-06-01T16:48:06.686Z,26.74
2019-06-01T16:50:33.601Z,26.85
2019-06-01T16:53:00.410Z,26.74
2019-06-01T16:55:27.479Z,26.60
2019-06-01T16:57:54.292Z,26.31
2019-06-01T17:00:21.240Z,26.09
2019-06-01T17:02:48.276Z,26.10
2019-06-01T17:05:15.359Z,25.85
2019-06-01T17:07:42.178Z,25.80
2019-06-01T17:10:24.985Z,25.84
2019-06-01T17:12:43.320Z,25.82
2019-06-01T17:15:09.392Z,25.03
2019-06-01T17:17:37.745Z,25.36
2019-06-01T17:20:07.930Z,25.39
2019-06-01T17:22:34.968Z,25.25
2019-06-01T17:25:05.837Z,25.18
2019-06-01T17:27:32.841Z,25.01
2019-06-01T17:30:00.029Z,25.02
2019-06-01T17:32:28.135Z,24.99
2019-06-01T17:34:54.845Z,24.78
2019-06-01T17:37:21.788Z,24.83
2019-06-01T17:39:48.576Z,24.44
2019-06-01T17:42:15.470Z,24.04
2019-06-01T17:44:42.169Z,23.39
2019-06-01T17:47:09.269Z,23.04
2019-06-01T17:49:35.957Z,23.09
2019-06-01T17:52:03.712Z,23.28
2019-06-01T17:54:30.915Z,23.00
2019-06-01T17:56:57.626Z,22.93
2019-06-01T17:59:24.306Z,23.12
2019-06-01T18:01:51.106Z,23.10
2019-06-01T18:04:17.931Z,22.90
2019-06-01T18:06:44.736Z,22.63
2019-06-01T18:09:12.836Z,22.63
2019-06-01T18:11:39.837Z,22.77
2019-06-01T18:14:08.250Z,22.77
2019-06-01T18:16:35.367Z,22.30
2019-06-01T18:19:04.096Z,22.05
2019-06-01T18:21:33.492Z,22.04
2019-06-01T18:24:03.436Z,22.05
2019-06-01T18:26:30.360Z,22.07
2019-06-01T18:28:57.120Z,22.21
2019-06-01T18:31:24.228Z,22.24
2019-06-01T18:33:53.634Z,22.23
2019-06-01T18:36:20.035Z,22.05
2019-06-01T18:38:46.909Z,21.99
2019-06-01T18:41:19.393Z,22.01
2019-06-01T18:43:42.456Z,21.96
2019-06-01T18:46:10.140Z,21.64
2019-06-01T18:48:37.413Z,21.38
2019-06-01T18:51:05.938Z,21.42
2019-06-01T18:53:33.261Z,21.51
2019-06-01T18:56:00.021Z,21.53
2019-06-01T18:58:26.703Z,21.47
2019-06-01T19:00:53.506Z,21.45
2019-06-01T19:03:21.482Z,21.32
2019-06-01T19:05:48.308Z,21.16
2019-06-01T19:08:16.209Z,21.04
2019-06-01T19:10:43.602Z,20.96
2019-06-01T19:13:11.695Z,20.99
2019-06-01T19:15:39.170Z,20.67
2019-06-01T19:18:06.376Z,20.39
2019-06-01T19:20:33.510Z,20.47
2019-06-01T19:23:03.483Z,20.69
2019-06-01T19:25:34.274Z,20.79
2019-06-01T19:28:01.549Z,20.59
2019-06-01T19:30:37.070Z,20.63
2019-06-01T19:33:06.760Z,20.44
2019-06-01T19:35:38.098Z,20.46
2019-06-01T19:38:06.897Z,20.50
2019-06-01T19:40:39.768Z,20.33
2019-06-01T19:43:11.490Z,19.78
2019-06-01T19:45:38.266Z,19.99
2019-06-01T19:48:08.021Z,19.77
2019-06-01T19:50:35.565Z,19.88
2019-06-01T19:53:03.051Z,19.75
2019-06-01T19:55:29.978Z,19.61
2019-06-01T19:57:56.819Z,19.42
2019-06-01T20:00:23.933Z,19.44
2019-06-01T20:02:50.786Z,19.22
2019-06-01T20:05:18.720Z,19.22
2019-06-01T20:07:45.792Z,19.13
2019-06-01T20:10:14.320Z,19.30
2019-06-01T20:12:41.476Z,19.24
2019-06-01T20:15:08.970Z,19.05
2019-06-01T20:17:37.709Z,19.13
2019-06-01T20:20:07.337Z,19.01
2019-06-01T20:22:34.496Z,19.07
2019-06-01T20:25:05.560Z,19.06
2019-06-01T20:27:35.022Z,18.74
2019-06-01T20:30:06.220Z,18.73
2019-06-01T20:32:35.223Z,18.54
2019-06-01T20:35:04.832Z,18.63
2019-06-01T20:37:31.870Z,18.49
2019-06-01T20:39:58.700Z,18.53
2019-06-01T20:42:31.779Z,18.56
2019-06-01T20:44:54.087Z,18.46
2019-06-01T20:47:22.956Z,18.42
2019-06-01T20:49:49.902Z,18.15
2019-06-01T20:52:19.015Z,17.87
2019-06-01T20:54:46.030Z,17.75
2019-06-01T20:57:13.336Z,17.88
2019-06-01T20:59:40.174Z,17.67
2019-06-01T21:02:06.875Z,17.72
2019-06-01T21:04:33.508Z,17.70
2019-06-01T21:07:00.432Z,17.55
2019-06-01T21:09:27.213Z,17.59
2019-06-01T21:11:54.018Z,17.63
2019-06-01T21:14:20.688Z,17.58
2019-06-01T21:16:48.156Z,17.41
2019-06-01T21:19:16.171Z,17.38
2019-06-01T21:21:43.354Z,17.51
2019-06-01T21:24:10.008Z,17.46
2019-06-01T21:26:36.722Z,17.52
2019-06-01T21:29:03.787Z,17.44
2019-06-01T21:31:30.373Z,17.33
2019-06-01T21:33:56.960Z,17.37
2019-06-01T21:36:23.671Z,17.32
2019-06-01T21:38:50.406Z,17.27
2019-06-01T21:41:17.519Z,17.10
2019-06-01T21:43:44.660Z,16.87
2019-06-01T21:46:11.493Z,17.15
2019-06-01T21:48:38.145Z,16.97
2019-06-01T21:51:04.892Z,16.89
2019-06-01T21:53:31.767Z,16.93
2019-06-01T21:55:58.411Z,16.80
2019-06-01T21:58:25.518Z,16.85
2019-06-01T22:00:53.739Z,16.76
2019-06-01T22:03:21.098Z,16.92
2019-06-01T22:05:47.972Z,16.89
2019-06-01T22:08:14.698Z,16.87
2019-06-01T22:10:41.580Z,16.90
2019-06-01T22:13:18.074Z,16.84
2019-06-01T22:15:36.887Z,16.87
2019-06-01T22:18:04.103Z,16.71
2019-06-01T22:20:30.739Z,16.70
2019-06-01T22:22:57.553Z,16.70
2019-06-01T22:25:24.178Z,16.58
2019-06-01T22:27:51.003Z,16.60
2019-06-01T22:30:20.316Z,16.48
2019-06-01T22:32:47.241Z,16.46
2019-06-01T22:35:14.256Z,16.51
2019-06-01T22:37:45.245Z,16.58
2019-06-01T22:40:12.342Z,16.32
2019-06-01T22:42:39.247Z,16.36
2019-06-01T22:45:07.200Z,16.42
2019-06-01T22:47:34.047Z,16.41
2019-06-01T22:50:01.076Z,16.35
2019-06-01T22:52:29.141Z,16.29
2019-06-01T22:54:55.943Z,16.09
2019-06-01T22:57:22.827Z,15.97
2019-06-01T22:59:49.518Z,15.87
2019-06-01T23:02:16.254Z,15.87
2019-06-01T23:04:42.902Z,15.60
2019-06-01T23:07:09.760Z,15.59
2019-06-01T23:09:39.425Z,15.70
2019-06-01T23:12:06.155Z,15.87
2019-06-01T23:14:32.923Z,15.84
2019-06-01T23:16:59.782Z,15.79
2019-06-01T23:19:27.926Z,15.67
2019-06-01T23:21:54.802Z,15.63
2019-06-01T23:24:21.864Z,15.67
2019-06-01T23:26:48.706Z,15.63
2019-06-01T23:29:15.353Z,15.59
2019-06-01T23:31:42.073Z,15.49
2019-06-01T23:34:08.902Z,15.34
2019-06-01T23:36:38.703Z,15.35
2019-06-01T23:39:06.444Z,15.47
2019-06-01T23:41:33.369Z,15.50
2019-06-01T23:44:10.983Z,15.49
2019-06-01T23:46:29.184Z,15.35
2019-06-01T23:48:56.283Z,15.29
2019-06-01T23:51:23.420Z,15.28
2019-06-01T23:53:50.336Z,15.29
2019-06-01T23:56:17.241Z,15.30
2019-06-01T23:58:43.823Z,15.24
